Time;durP1;ratioP1;P1;durP2;ratioP2;P2;SDS_P1;SDS_P2;PMS_P1;PMS_P2;Temp;Humidity;BMP_temperature;BMP_pressure;BME280_temperature;BME280_humidity;BME280_pressure;Samples;Min_cycle;Max_cycle;Signal;HPM_P1;HPM_P2
2022/05/12 00:00:44;;;;;;;1.25;0.50;;;;;;;17.33;34.75;101585.94;4933086;29;20114;-80
2022/05/12 00:03:13;;;;;;;2.10;0.50;;;;;;;17.28;34.85;101578.88;4933012;29;20048;-80
2022/05/12 00:05:41;;;;;;;2.58;0.77;;;;;;;17.26;36.45;101581.47;4932133;29;20051;-79
2022/05/12 00:08:10;;;;;;;1.10;0.40;;;;;;;17.25;36.66;101584.97;4929293;29;20718;-78
2022/05/12 00:10:38;;;;;;;2.40;0.55;;;;;;;17.23;36.19;101584.06;4934213;29;20048;-79
2022/05/12 00:13:10;;;;;;;2.47;0.40;;;;;;;17.13;35.39;101577.81;4933675;29;20196;-82
2022/05/12 00:15:39;;;;;;;1.33;0.30;;;;;;;17.14;35.72;101583.91;4933263;29;20060;-80
2022/05/12 00:18:09;;;;;;;1.33;0.55;;;;;;;17.12;36.16;101585.63;4933955;29;20524;-77
2022/05/12 00:20:41;;;;;;;2.75;0.52;;;;;;;17.06;37.23;101590.72;4934192;29;20112;-79
2022/05/12 00:23:12;;;;;;;3.27;0.67;;;;;;;17.06;37.96;101596.84;4933700;29;20094;-80
2022/05/12 00:25:41;;;;;;;1.60;0.77;;;;;;;17.07;36.72;101588.16;4934010;29;20294;-79
2022/05/12 00:28:12;;;;;;;3.05;0.70;;;;;;;17.07;37.30;101595.13;4934189;28;20151;-78
2022/05/12 00:30:41;;;;;;;1.15;0.47;;;;;;;17.08;37.70;101596.88;4951394;29;20516;-79
2022/05/12 00:33:11;;;;;;;2.05;0.70;;;;;;;17.12;37.41;101598.69;4956466;29;20047;-79
2022/05/12 00:35:40;;;;;;;1.58;0.50;;;;;;;17.05;36.97;101594.22;4953077;29;20676;-78
2022/05/12 00:38:09;;;;;;;2.40;0.40;;;;;;;17.13;37.12;101598.72;4934818;29;20059;-79
2022/05/12 00:40:39;;;;;;;1.50;0.60;;;;;;;17.11;35.96;101584.75;4933490;29;20048;-79
2022/05/12 00:43:09;;;;;;;2.63;0.52;;;;;;;17.04;36.27;101592.44;4932599;29;20126;-79
2022/05/12 00:45:40;;;;;;;0.65;0.32;;;;;;;16.95;36.57;101582.75;4931520;29;20058;-78
2022/05/12 00:48:09;;;;;;;1.55;0.60;;;;;;;17.02;37.33;101592.44;4932787;29;20056;-79
2022/05/12 00:50:41;;;;;;;1.50;0.60;;;;;;;16.96;36.80;101597.56;4932759;29;20114;-78
2022/05/12 00:53:10;;;;;;;;;;;;;;;16.96;37.06;101587.97;4932377;29;20062;-80
2022/05/12 00:55:43;;;;;;;1.15;0.40;;;;;;;16.96;37.69;101593.19;4932258;29;20016;-77
2022/05/12 00:58:17;;;;;;;2.30;0.70;;;;;;;16.93;37.01;101593.16;4932144;29;20489;-78
2022/05/12 01:00:47;;;;;;;0.60;0.30;;;;;;;16.90;36.83;101590.47;4932300;29;20057;-77
2022/05/12 01:03:18;;;;;;;1.33;0.40;;;;;;;16.88;37.07;101596.53;4931972;29;20051;-77
2022/05/12 01:05:47;;;;;;;3.17;0.50;;;;;;;16.87;37.51;101598.28;4932435;29;20056;-77
2022/05/12 01:08:18;;;;;;;1.48;0.43;;;;;;;16.86;37.65;101607.00;4931933;29;20521;-77
2022/05/12 01:10:50;;;;;;;1.13;0.60;;;;;;;16.86;37.69;101606.06;4932202;29;20047;-77
2022/05/12 01:13:19;;;;;;;0.83;0.60;;;;;;;16.84;37.76;101606.06;4932304;29;20059;-76
2022/05/12 01:15:55;;;;;;;6.07;1.88;;;;;;;16.75;36.71;101603.28;4932392;29;20056;-77
2022/05/12 01:18:27;;;;;;;1.75;0.60;;;;;;;16.67;37.86;101608.34;4932338;29;20058;-77
2022/05/12 01:20:56;;;;;;;3.30;0.70;;;;;;;16.60;37.04;101600.38;4931991;29;20062;-77
2022/05/12 01:23:28;;;;;;;2.60;0.60;;;;;;;16.50;36.94;101605.44;4932155;29;20103;-79
2022/05/12 01:25:58;;;;;;;1.58;0.40;;;;;;;16.39;38.65;101609.56;4933728;29;20103;-78
2022/05/12 01:28:28;;;;;;;0.63;0.38;;;;;;;16.27;38.39;101612.81;4933877;28;20067;-78
2022/05/12 01:30:57;;;;;;;2.58;0.50;;;;;;;16.17;39.33;101616.13;4941923;29;20114;-77
2022/05/12 01:33:25;;;;;;;1.60;0.50;;;;;;;16.08;39.35;101615.91;4950577;29;20062;-78
2022/05/12 01:35:54;;;;;;;1.15;0.50;;;;;;;15.96;37.89;101616.53;4950504;29;20051;-77
2022/05/12 01:38:23;;;;;;;0.77;0.40;;;;;;;15.88;38.31;101618.13;4930990;29;20056;-77
2022/05/12 01:40:53;;;;;;;0.50;0.40;;;;;;;15.77;39.21;101620.47;4931481;29;20442;-78
2022/05/12 01:43:22;;;;;;;0.90;0.43;;;;;;;15.66;39.48;101616.72;4930105;29;20058;-76
2022/05/12 01:45:50;;;;;;;0.95;0.30;;;;;;;15.61;40.33;101620.97;4932057;29;20386;-77
2022/05/12 01:48:20;;;;;;;1.48;0.35;;;;;;;15.57;39.37;101616.50;4932204;29;20047;-77
2022/05/12 01:50:49;;;;;;;2.83;0.40;;;;;;;15.47;39.68;101626.72;4932976;29;20123;-77
2022/05/12 01:53:18;;;;;;;3.15;0.43;;;;;;;15.39;39.45;101627.38;4930738;29;20089;-77
2022/05/12 01:55:49;;;;;;;0.73;0.40;;;;;;;15.32;39.61;101630.69;4930958;29;20131;-77
2022/05/12 01:58:20;;;;;;;1.42;0.40;;;;;;;15.27;38.94;101638.41;4931143;29;20059;-78
2022/05/12 02:00:49;;;;;;;2.45;0.47;;;;;;;15.19;39.82;101625.19;4930761;29;20051;-77
2022/05/12 02:03:17;;;;;;;2.08;0.43;;;;;;;15.11;40.05;101638.88;4931213;29;20114;-77
2022/05/12 02:05:47;;;;;;;2.20;0.75;;;;;;;15.06;40.98;101641.38;4931416;29;20514;-77
2022/05/12 02:08:18;;;;;;;1.20;0.63;;;;;;;14.98;41.88;101641.19;4931475;29;20420;-77
2022/05/12 02:10:49;;;;;;;2.45;0.47;;;;;;;14.93;41.80;101631.47;4931284;29;20663;-77
2022/05/12 02:13:21;;;;;;;1.40;0.32;;;;;;;14.88;40.04;101633.97;4931380;29;20482;-78
2022/05/12 02:15:50;;;;;;;;;;;;;;;14.78;41.23;101645.00;4931767;29;20051;-77
2022/05/12 02:18:21;;;;;;;2.25;0.68;;;;;;;14.72;40.38;101652.66;4932465;29;19977;-76
2022/05/12 02:20:50;;;;;;;7.15;0.55;;;;;;;14.64;41.78;101661.13;4932440;29;20056;-77
2022/05/12 02:23:19;;;;;;;1.80;0.55;;;;;;;14.55;41.66;101667.81;4933636;29;20059;-77
2022/05/12 02:25:48;;;;;;;0.65;0.40;;;;;;;14.44;42.54;101665.75;4931760;29;20079;-78
2022/05/12 02:28:19;;;;;;;2.33;0.52;;;;;;;14.33;43.15;101677.56;4930986;28;20239;-78
2022/05/12 02:30:47;;;;;;;0.57;0.30;;;;;;;14.28;41.79;101673.97;4939997;29;20428;-76
2022/05/12 02:33:16;;;;;;;1.33;0.45;;;;;;;14.26;42.65;101683.44;4949810;29;20057;-77
2022/05/12 02:35:45;;;;;;;1.63;0.43;;;;;;;14.26;43.66;101688.66;4950656;29;20089;-76
2022/05/12 02:38:14;;;;;;;5.47;0.75;;;;;;;14.26;43.93;101691.25;4932470;29;20151;-77
2022/05/12 02:40:43;;;;;;;2.05;0.55;;;;;;;14.24;43.85;101690.31;4931162;29;20048;-77
2022/05/12 02:43:24;;;;;;;0.95;0.40;;;;;;;14.20;43.76;101691.06;4930838;29;20043;-76
2022/05/12 02:45:58;;;;;;;1.70;0.73;;;;;;;14.11;43.83;101693.41;4931446;29;20084;-76
2022/05/12 02:48:29;;;;;;;1.02;0.57;;;;;;;14.11;44.53;101693.41;4931660;29;20103;-76
2022/05/12 02:50:58;;;;;;;1.75;0.60;;;;;;;14.07;44.65;101696.78;4932256;29;20063;-76
2022/05/12 02:53:27;;;;;;;3.00;0.63;;;;;;;13.98;44.96;101692.16;4932250;29;20501;-77
2022/05/12 02:55:56;;;;;;;1.90;0.60;;;;;;;13.88;45.16;101691.00;4931778;29;20084;-76
2022/05/12 02:58:25;;;;;;;1.55;0.40;;;;;;;13.83;45.77;101708.16;4931297;29;20111;-76
2022/05/12 03:00:55;;;;;;;4.85;0.60;;;;;;;13.74;46.38;101697.47;4931412;29;20055;-77
2022/05/12 03:03:24;;;;;;;2.40;0.40;;;;;;;13.60;47.10;101700.50;4930826;29;20084;-76
2022/05/12 03:05:53;;;;;;;3.30;0.47;;;;;;;13.51;47.21;101702.81;4930691;29;20048;-76
2022/05/12 03:08:22;;;;;;;0.43;0.20;;;;;;;13.40;48.21;101697.28;4914417;29;20091;-76
2022/05/12 03:10:52;;;;;;;2.70;0.50;;;;;;;13.33;47.90;101694.41;4915317;29;20663;-76
2022/05/12 03:13:23;;;;;;;1.65;0.40;;;;;;;13.27;48.55;101695.06;4915542;29;20099;-76
2022/05/12 03:15:51;;;;;;;1.67;0.30;;;;;;;13.23;48.69;101692.31;4915438;29;20139;-77
2022/05/12 03:18:21;;;;;;;1.33;0.30;;;;;;;13.20;48.82;101691.38;4918553;29;20048;-77
2022/05/12 03:20:50;;;;;;;1.77;0.70;;;;;;;13.20;48.42;101696.56;4915769;29;20048;-76
2022/05/12 03:23:22;;;;;;;1.52;0.50;;;;;;;13.17;49.15;101704.28;4915193;29;20169;-76
2022/05/12 03:25:51;;;;;;;2.38;0.32;;;;;;;13.14;49.34;101703.28;4915384;29;20155;-76
2022/05/12 03:28:19;;;;;;;1.00;0.32;;;;;;;13.12;50.12;101711.00;4915066;29;20070;-76
2022/05/12 03:30:48;;;;;;;0.60;0.45;;;;;;;13.07;50.12;101711.69;4932597;29;20055;-76
2022/05/12 03:33:17;;;;;;;5.15;0.55;;;;;;;12.98;50.13;101709.66;4940769;29;20060;-77
2022/05/12 03:35:49;;;;;;;1.20;0.65;;;;;;;12.92;50.75;101706.88;4914338;29;20052;-77
2022/05/12 03:38:17;;;;;;;1.77;0.68;;;;;;;12.88;50.50;101705.88;4932725;29;20110;-77
2022/05/12 03:40:46;;;;;;;0.35;0.30;;;;;;;12.86;50.78;101723.09;4933564;29;20151;-78
2022/05/12 03:44:46;;;;;;;1.08;0.35;;;;;;;12.83;50.97;101719.50;4932778;29;20087;-78
2022/05/12 03:46:04;;;;;;;0.88;0.38;;;;;;;12.74;51.18;101723.56;4933577;29;20051;-75
2022/05/12 03:48:33;;;;;;;0.82;0.20;;;;;;;12.68;51.61;101722.44;4933774;29;20494;-78
2022/05/12 03:51:04;;;;;;;1.90;0.30;;;;;;;12.59;51.11;101712.59;4933379;29;20099;-79
2022/05/12 03:53:32;;;;;;;1.02;0.60;;;;;;;12.54;51.70;101714.16;4933176;29;20135;-79
2022/05/12 03:56:02;;;;;;;1.55;0.80;;;;;;;12.51;51.96;101717.53;4932891;29;20529;-78
2022/05/12 03:58:31;;;;;;;2.80;0.60;;;;;;;12.48;51.44;101708.72;4933506;29;20048;-78
2022/05/12 04:01:00;;;;;;;0.20;0.20;;;;;;;12.42;52.14;101712.00;4933278;29;20044;-78
2022/05/12 04:03:29;;;;;;;1.00;0.38;;;;;;;12.35;51.87;101708.28;4933300;29;20534;-78
2022/05/12 04:06:01;;;;;;;1.02;0.45;;;;;;;12.31;52.30;101719.38;4933308;29;20107;-77
2022/05/12 04:08:31;;;;;;;;;;;;;;;12.12;52.73;101704.81;4934072;29;20051;-78
2022/05/12 04:11:00;;;;;;;0.90;0.20;;;;;;;12.18;53.26;101727.50;4934361;29;19923;-78
2022/05/12 04:13:29;;;;;;;0.40;0.40;;;;;;;12.06;53.59;101732.22;4935290;29;20083;-77
2022/05/12 04:15:58;;;;;;;1.10;0.50;;;;;;;12.00;55.27;101724.19;4935977;29;20485;-78
2022/05/12 04:18:26;;;;;;;0.65;0.28;;;;;;;11.90;54.72;101718.66;4933774;29;20051;-77
2022/05/12 04:20:55;;;;;;;0.73;0.40;;;;;;;11.83;56.62;101720.91;4933462;29;20073;-78
2022/05/12 04:23:23;;;;;;;4.05;1.00;;;;;;;11.74;56.55;101730.09;4932863;29;20047;-77
2022/05/12 04:25:54;;;;;;;0.57;0.32;;;;;;;11.67;57.17;101717.69;4932913;29;20510;-76
2022/05/12 04:28:22;;;;;;;0.10;0.10;;;;;;;11.65;57.16;101721.06;4932660;28;20050;-77
2022/05/12 04:30:51;;;;;;;1.77;0.55;;;;;;;11.53;57.25;101716.25;4942212;29;20054;-78
2022/05/12 04:36:05;;;;;;;0.45;0.30;;;;;;;11.46;58.07;101725.50;4951044;29;20062;-78
2022/05/12 04:38:33;;;;;;;1.73;0.40;;;;;;;11.38;58.17;101726.00;4952029;29;20051;-77
2022/05/12 04:41:03;;;;;;;1.20;0.40;;;;;;;11.35;59.39;101729.34;4951612;29;20051;-78
2022/05/12 04:43:32;;;;;;;4.63;0.40;;;;;;;11.29;59.96;101734.25;4952651;29;20047;-87
2022/05/12 04:46:01;;;;;;;2.45;0.50;;;;;;;11.24;60.87;101733.19;4953771;29;20047;-85
2022/05/12 04:48:31;;;;;;;1.02;0.47;;;;;;;11.24;60.96;101731.47;4952738;29;20128;-77
2022/05/12 04:51:00;;;;;;;1.75;0.40;;;;;;;11.27;61.94;101725.53;4951543;29;20154;-79
2022/05/12 04:53:29;;;;;;;0.65;0.45;;;;;;;11.26;61.94;101731.53;4951936;29;20716;-77
2022/05/12 04:55:58;;;;;;;0.43;0.43;;;;;;;11.25;61.50;101725.50;4951505;29;20043;-78
2022/05/12 04:58:28;;;;;;;1.80;0.47;;;;;;;11.26;62.38;101731.53;4951424;29;20118;-79
2022/05/12 05:00:56;;;;;;;3.53;0.80;;;;;;;11.26;61.35;101728.97;4951199;29;20063;-77
2022/05/12 05:03:25;;;;;;;1.15;0.70;;;;;;;11.29;61.78;101723.88;4951157;29;20086;-78
2022/05/12 05:05:54;;;;;;;0.95;0.30;;;;;;;11.29;60.52;101718.72;4951525;29;20050;-78
2022/05/12 05:08:25;;;;;;;3.50;0.30;;;;;;;11.30;62.10;101717.91;4951067;29;20069;-77
2022/05/12 05:10:54;;;;;;;1.45;0.63;;;;;;;11.31;61.66;101709.28;4953826;29;20051;-77
2022/05/12 05:13:24;;;;;;;0.38;0.30;;;;;;;11.24;61.32;101712.47;4951494;29;20051;-77
2022/05/12 05:15:55;;;;;;;0.20;0.20;;;;;;;11.21;62.84;101710.63;4951892;29;20059;-78
2022/05/12 05:18:32;;;;;;;0.40;0.30;;;;;;;11.18;61.50;101707.91;4951347;29;20051;-79
2022/05/12 05:21:01;;;;;;;0.73;0.40;;;;;;;11.18;62.81;101712.19;4951263;29;20142;-78
2022/05/12 05:23:29;;;;;;;1.02;0.65;;;;;;;11.14;61.62;101716.38;4950347;29;20047;-80
2022/05/12 05:25:59;;;;;;;0.43;0.20;;;;;;;11.13;63.02;101716.28;4950691;29;20195;-78
2022/05/12 05:28:41;;;;;;;0.77;0.28;;;;;;;11.07;61.74;101712.63;4951317;28;20615;-80
2022/05/12 05:31:11;;;;;;;0.73;0.30;;;;;;;11.03;61.80;101713.31;4950163;28;20143;-78
2022/05/12 05:33:40;;;;;;;0.70;0.40;;;;;;;10.99;63.00;101707.94;4950515;29;20082;-80
2022/05/12 05:36:08;;;;;;;0.63;0.40;;;;;;;10.98;62.63;101701.00;4949740;29;20103;-80
2022/05/12 05:38:38;;;;;;;1.30;0.40;;;;;;;10.96;63.76;101700.94;4951099;29;20051;-80
2022/05/12 05:41:07;;;;;;;0.10;0.10;;;;;;;10.93;63.23;101699.94;4950467;29;20124;-80
2022/05/12 05:43:37;;;;;;;0.45;0.40;;;;;;;10.87;63.55;101696.22;4950762;29;20051;-80
2022/05/12 05:46:06;;;;;;;1.00;0.40;;;;;;;10.85;63.17;101686.63;4950650;29;20051;-80
2022/05/12 05:48:36;;;;;;;1.05;0.30;;;;;;;10.78;64.14;101694.94;4950534;29;20093;-80
2022/05/12 05:53:51;;;;;;;1.80;0.45;;;;;;;10.69;65.40;101677.31;4950375;29;20838;-81
2022/05/12 05:56:20;;;;;;;4.95;0.52;;;;;;;10.76;64.88;101692.28;4950906;29;20724;-80
2022/05/12 05:58:49;;;;;;;1.35;0.17;;;;;;;10.76;62.71;101688.81;4950700;29;20166;-80
2022/05/12 06:01:18;;;;;;;3.75;0.60;;;;;;;10.76;62.64;101694.00;4950247;29;20489;-78
2022/05/12 06:03:49;;;;;;;0.82;0.40;;;;;;;10.72;63.11;101692.09;4951686;29;20047;-80
2022/05/12 06:06:18;;;;;;;2.80;0.47;;;;;;;10.68;63.32;101689.38;4951919;29;20043;-80
2022/05/12 06:08:48;;;;;;;2.95;0.40;;;;;;;10.68;63.69;101699.72;4954309;29;20047;-79
2022/05/12 06:11:17;;;;;;;2.80;0.60;;;;;;;10.68;64.44;101683.31;4950942;29;20820;-80
2022/05/12 06:13:47;;;;;;;1.33;0.40;;;;;;;10.67;64.50;101687.63;4949782;29;20055;-80
2022/05/12 06:16:16;;;;;;;1.58;0.32;;;;;;;10.67;64.07;101684.13;4950335;29;20130;-80
2022/05/12 06:18:46;;;;;;;0.57;0.30;;;;;;;10.62;64.64;101683.91;4950740;29;20098;-78
2022/05/12 06:21:17;;;;;;;2.42;0.40;;;;;;;10.52;63.85;101671.41;4950016;28;20509;-81
2022/05/12 06:23:46;;;;;;;0.68;0.50;;;;;;;10.51;63.11;101664.44;4950542;29;20487;-78
2022/05/12 06:26:14;;;;;;;1.40;0.30;;;;;;;10.51;63.55;101661.84;4949541;29;20047;-79
2022/05/12 06:28:45;;;;;;;2.72;0.55;;;;;;;10.56;63.39;101667.22;4950357;28;20224;-80
2022/05/12 06:31:14;;;;;;;2.13;0.63;;;;;;;10.55;64.01;101661.19;4950094;29;20509;-80
2022/05/12 06:33:43;;;;;;;0.85;0.38;;;;;;;10.53;64.13;101661.94;4950244;29;20058;-81
2022/05/12 06:36:11;;;;;;;2.05;0.50;;;;;;;10.50;64.78;101664.41;4949177;29;20046;-80
2022/05/12 06:38:41;;;;;;;0.25;0.20;;;;;;;10.50;66.05;101656.63;4950400;29;20058;-79
2022/05/12 06:41:10;;;;;;;2.60;0.45;;;;;;;10.52;67.00;101665.34;4949435;28;20568;-80
2022/05/12 06:43:39;;;;;;;0.30;0.20;;;;;;;10.48;66.01;101664.31;4951841;29;20121;-79
2022/05/12 06:46:11;;;;;;;0.75;0.30;;;;;;;10.45;66.52;101665.06;4953585;29;20094;-78
2022/05/12 06:48:40;;;;;;;0.63;0.20;;;;;;;10.46;68.45;101663.38;4953682;29;20457;-78
2022/05/12 06:51:08;;;;;;;1.70;0.30;;;;;;;10.48;66.82;101661.72;4953245;29;20512;-80
2022/05/12 06:53:37;;;;;;;2.08;0.40;;;;;;;10.45;67.42;101659.03;4953771;29;20115;-80
2022/05/12 06:56:08;;;;;;;4.38;0.40;;;;;;;10.46;67.47;101665.94;4953327;29;20109;-80
2022/05/12 06:58:37;;;;;;;2.05;0.52;;;;;;;10.41;68.50;101657.97;4953701;29;20519;-80
2022/05/12 07:01:06;;;;;;;0.73;0.22;;;;;;;10.39;68.23;101664.78;4952817;29;20114;-79
2022/05/12 07:03:35;;;;;;;0.52;0.25;;;;;;;10.41;68.88;101665.75;4954163;29;20051;-80
2022/05/12 07:06:03;;;;;;;3.83;0.90;;;;;;;10.42;69.39;101664.03;4957991;29;20051;-80
2022/05/12 07:08:32;;;;;;;0.80;0.28;;;;;;;10.38;69.39;101656.97;4954862;29;20106;-77
2022/05/12 07:11:01;;;;;;;4.43;0.60;;;;;;;10.33;69.46;101651.59;4955224;29;20055;-80
2022/05/12 07:13:31;;;;;;;2.08;0.43;;;;;;;10.34;69.19;101660.25;4954515;29;20138;-80
2022/05/12 07:15:59;;;;;;;1.40;0.40;;;;;;;10.36;68.61;101658.59;4953518;29;20098;-80
2022/05/12 07:18:28;;;;;;;0.88;0.35;;;;;;;10.34;68.79;101655.94;4953215;29;20051;-79
2022/05/12 07:26:41;;;;;;;2.33;0.43;;;;;;;10.33;70.23;101645.50;4953072;29;20054;-80
2022/05/12 07:29:13;;;;;;;3.08;0.60;;;;;;;10.32;69.53;101651.53;4953671;28;20059;-81
2022/05/12 07:31:41;;;;;;;1.03;0.77;;;;;;;10.33;69.90;101636.06;4953281;29;20397;-81
2022/05/12 07:34:10;;;;;;;1.63;0.73;;;;;;;10.34;71.36;101634.38;4952500;29;20599;-79
2022/05/12 07:36:41;;;;;;;6.53;1.02;;;;;;;10.30;71.16;101638.50;4952747;29;20048;-82
2022/05/12 07:39:11;;;;;;;2.47;0.70;;;;;;;10.34;71.46;101636.97;4952799;29;20057;-81
2022/05/12 07:41:41;;;;;;;2.80;0.90;;;;;;;10.29;71.43;101631.56;4952228;29;20077;-82
2022/05/12 07:44:13;;;;;;;2.17;0.90;;;;;;;10.32;70.27;101636.00;4952760;29;20051;-80
2022/05/12 07:46:42;;;;;;;1.38;0.77;;;;;;;10.25;70.46;101630.50;4952705;29;20054;-79
2022/05/12 07:49:11;;;;;;;2.17;1.17;;;;;;;10.22;70.40;101630.38;4952794;29;20424;-80
2022/05/12 07:51:39;;;;;;;0.63;0.52;;;;;;;10.24;70.35;101633.94;4952432;29;20122;-79
2022/05/12 07:54:08;;;;;;;2.05;0.50;;;;;;;10.25;70.25;101642.56;4951814;28;20676;-79
2022/05/12 07:56:36;;;;;;;1.55;0.60;;;;;;;10.24;69.37;101628.75;4952711;29;20055;-81
2022/05/12 07:59:05;;;;;;;1.25;0.52;;;;;;;10.25;70.15;101630.50;4952870;29;20051;-79
2022/05/12 08:01:36;;;;;;;0.85;0.60;;;;;;;10.25;69.87;101633.09;4952880;29;20043;-80
2022/05/12 08:04:04;;;;;;;3.83;0.82;;;;;;;10.26;69.83;101627.13;4955764;29;20059;-79
2022/05/12 08:06:33;;;;;;;2.55;0.85;;;;;;;10.27;70.09;101634.06;4953055;29;20090;-79
2022/05/12 08:09:02;;;;;;;4.15;0.80;;;;;;;10.30;70.24;101633.34;4953253;29;20047;-79
2022/05/12 08:11:31;;;;;;;2.03;0.43;;;;;;;10.31;69.64;101634.22;4952765;29;20485;-79
2022/05/12 08:14:00;;;;;;;0.85;0.70;;;;;;;10.29;69.95;101630.69;4952982;29;20134;-79
2022/05/12 08:16:28;;;;;;;1.30;0.60;;;;;;;10.27;70.18;101621.13;4953750;29;20055;-79
2022/05/12 08:18:58;;;;;;;2.70;0.60;;;;;;;10.25;69.57;101614.13;4954075;29;20058;-79
2022/05/12 08:21:27;;;;;;;1.95;0.75;;;;;;;10.24;70.08;101618.41;4952793;28;20043;-78
2022/05/12 08:23:55;;;;;;;1.25;0.50;;;;;;;10.23;69.03;101610.56;4952755;29;20043;-79
2022/05/12 08:26:24;;;;;;;0.57;0.30;;;;;;;10.21;69.89;101604.44;4952568;29;20082;-79
2022/05/12 08:28:53;;;;;;;1.40;0.70;;;;;;;10.19;69.58;101604.41;4952586;28;20171;-80
2022/05/12 08:31:27;;;;;;;1.85;0.50;;;;;;;10.17;70.51;101589.59;4951621;29;20051;-79
2022/05/12 08:33:55;;;;;;;1.00;0.60;;;;;;;10.14;69.33;101590.34;4951687;29;20054;-77
2022/05/12 08:36:27;;;;;;;1.38;0.52;;;;;;;10.11;70.19;101587.63;4951353;29;20114;-79
2022/05/12 08:38:56;;;;;;;1.55;0.60;;;;;;;10.08;69.59;101579.75;4952206;29;20047;-79
2022/05/12 08:41:33;;;;;;;2.45;0.60;;;;;;;10.07;70.06;101580.56;4952125;29;20055;-79
2022/05/12 08:44:06;;;;;;;0.98;0.47;;;;;;;10.07;70.09;101573.66;4952051;29;20418;-78
2022/05/12 08:46:43;;;;;;;1.73;0.70;;;;;;;10.07;69.91;101570.22;4951683;29;20047;-78
2022/05/12 08:49:20;;;;;;;2.28;1.10;;;;;;;10.04;70.47;101572.66;4951911;29;20058;-80
2022/05/12 08:51:53;;;;;;;3.35;0.73;;;;;;;10.02;70.16;101574.31;4951367;29;20130;-78
2022/05/12 08:54:25;;;;;;;2.20;0.50;;;;;;;10.01;71.74;101576.00;4951904;29;20086;-78
2022/05/12 08:57:01;;;;;;;1.63;0.85;;;;;;;10.02;70.51;101574.31;4951297;29;20138;-80
2022/05/12 08:59:31;;;;;;;2.40;0.50;;;;;;;10.04;70.85;101577.84;4952115;29;20051;-80
2022/05/12 09:02:11;;;;;;;0.85;0.73;;;;;;;10.06;71.96;101576.22;4954681;29;20579;-79
2022/05/12 09:04:56;;;;;;;1.77;0.50;;;;;;;10.06;70.70;101581.38;4952357;28;20067;-80
2022/05/12 09:07:30;;;;;;;2.65;0.70;;;;;;;10.05;72.22;101582.19;4951206;29;20059;-79
2022/05/12 09:10:10;;;;;;;2.78;0.60;;;;;;;10.03;71.65;101571.78;4951860;29;20051;-80
2022/05/12 09:12:48;;;;;;;2.33;0.40;;;;;;;10.06;71.77;101573.63;4951432;29;20090;-80
2022/05/12 09:15:22;;;;;;;0.70;0.50;;;;;;;10.05;71.66;101571.84;4951199;29;20055;-80
2022/05/12 09:17:56;;;;;;;2.10;0.65;;;;;;;10.06;74.12;101571.03;4952670;29;20082;-79
2022/05/12 09:20:26;;;;;;;2.20;0.60;;;;;;;10.06;73.32;101573.63;4951793;29;20087;-79
2022/05/12 09:22:56;;;;;;;3.42;0.85;;;;;;;10.07;73.93;101563.31;4950934;29;20055;-79
2022/05/12 09:25:35;;;;;;;2.13;0.82;;;;;;;10.05;73.94;101556.31;4951319;29;20054;-77
2022/05/12 09:28:28;;;;;;;6.03;0.80;;;;;;;9.98;75.29;101552.56;4951211;29;20054;-80
2022/05/12 09:31:01;;;;;;;1.05;0.73;;;;;;;10.00;75.93;101555.25;4949438;28;20054;-79
2022/05/12 09:33:33;;;;;;;0.73;0.40;;;;;;;10.02;75.51;101553.63;4950804;29;20425;-80
2022/05/12 09:36:05;;;;;;;1.45;0.77;;;;;;;10.04;75.21;101544.22;4950330;29;20059;-79
2022/05/12 09:38:42;;;;;;;2.23;0.47;;;;;;;10.01;74.63;101547.56;4951287;29;20051;-80
2022/05/12 09:41:20;;;;;;;1.75;0.98;;;;;;;10.05;74.60;101544.28;4951707;29;20058;-79
2022/05/12 09:43:51;;;;;;;2.22;0.50;;;;;;;10.04;74.77;101541.63;4951889;29;20134;-79
2022/05/12 09:46:29;;;;;;;2.22;0.70;;;;;;;10.06;75.09;101540.00;4950949;29;20571;-78
2022/05/12 09:49:17;;;;;;;0.65;0.40;;;;;;;10.10;75.15;101544.50;4950994;29;20105;-79
2022/05/12 09:51:46;;;;;;;5.07;0.77;;;;;;;10.05;75.28;101540.81;4950833;29;20090;-79
2022/05/12 09:54:25;;;;;;;2.40;0.68;;;;;;;10.04;76.26;101539.94;4950554;29;20062;-78
2022/05/12 09:57:14;;;;;;;2.03;0.73;;;;;;;10.03;76.60;101545.03;4950898;29;20048;-80
2022/05/12 09:59:44;;;;;;;3.45;0.77;;;;;;;10.03;76.83;101543.34;4954639;29;20047;-81
2022/05/12 10:08:17;;;;;;;2.08;0.70;;;;;;;9.97;75.84;101529.25;4950705;29;20058;-81
2022/05/12 10:10:48;;;;;;;3.80;0.60;;;;;;;9.96;76.86;101530.06;4950451;29;20070;-80
2022/05/12 10:13:25;;;;;;;0.68;0.60;;;;;;;9.96;77.04;101532.66;4950315;29;20054;-80
2022/05/12 10:15:56;;;;;;;0.93;0.50;;;;;;;9.97;76.46;101524.09;4950276;29;20114;-80
2022/05/12 10:18:32;;;;;;;0.60;0.32;;;;;;;9.95;76.80;101515.38;4958316;29;20055;-81
2022/05/12 10:21:09;;;;;;;3.13;0.63;;;;;;;9.95;77.43;101520.56;4938532;29;20067;-80
2022/05/12 10:23:47;;;;;;;1.80;0.60;;;;;;;9.88;81.44;101521.97;4936933;29;20052;-80
2022/05/12 10:26:23;;;;;;;2.47;0.70;;;;;;;9.88;80.49;101518.50;4937027;29;20153;-80
2022/05/12 10:28:54;;;;;;;2.70;1.42;;;;;;;9.85;81.19;101514.97;4937880;29;20047;-81
2022/05/12 10:31:28;;;;;;;1.77;0.80;;;;;;;9.87;84.12;101512.44;4950153;29;20098;-80
2022/05/12 10:34:09;;;;;;;7.63;0.57;;;;;;;9.77;80.49;101516.31;4956851;28;20055;-79
2022/05/12 10:36:49;;;;;;;3.85;0.95;;;;;;;9.80;79.59;101532.00;4957765;29;20051;-79
2022/05/12 10:39:28;;;;;;;1.63;0.88;;;;;;;9.79;80.57;101525.03;4957853;28;20061;-81
2022/05/12 10:42:12;;;;;;;3.28;0.70;;;;;;;9.73;79.05;101529.91;4957886;29;20493;-80
2022/05/12 10:45:01;;;;;;;1.15;0.70;;;;;;;9.72;78.73;101528.16;4957337;29;20110;-80
2022/05/12 10:47:48;;;;;;;1.23;0.43;;;;;;;9.73;79.92;101519.56;4956780;29;20052;-84
2022/05/12 10:50:22;;;;;;;2.05;0.47;;;;;;;9.77;79.72;101525.78;4956904;28;20098;-82
2022/05/12 10:52:58;;;;;;;1.30;0.55;;;;;;;9.72;78.42;101517.81;4956943;28;20540;-81
2022/05/12 10:55:35;;;;;;;0.70;0.55;;;;;;;9.71;79.08;101516.06;4955468;28;20119;-82
2022/05/12 10:58:22;;;;;;;1.23;0.55;;;;;;;9.73;78.51;101519.56;4938714;29;20050;-81
2022/05/12 11:01:09;;;;;;;2.25;0.70;;;;;;;9.69;76.88;101517.69;4938533;29;20044;-80
2022/05/12 11:03:43;;;;;;;2.88;0.40;;;;;;;9.63;76.95;101512.25;4937483;29;20047;-79
2022/05/12 11:06:15;;;;;;;0.90;0.57;;;;;;;9.71;78.31;101515.16;4937438;29;20055;-78
2022/05/12 11:08:45;;;;;;;;;;;;;;;9.67;77.73;101519.31;4937760;29;20461;-80
2022/05/12 11:11:18;;;;;;;2.25;0.70;;;;;;;9.68;78.07;101522.78;4935172;29;19927;-83
2022/05/12 11:13:51;;;;;;;;;;;;;;;9.62;77.58;101511.34;4937626;29;20128;-84
2022/05/12 11:16:24;;;;;;;0.95;0.50;;;;;;;9.60;76.91;101502.66;4936790;29;19926;-81
2022/05/12 11:19:05;;;;;;;3.75;0.68;;;;;;;9.61;76.91;101508.69;4936984;29;20501;-84
2022/05/12 11:21:41;;;;;;;1.85;0.40;;;;;;;9.58;77.29;101513.72;4936428;29;20053;-82
2022/05/12 11:24:30;;;;;;;1.60;0.60;;;;;;;9.57;77.58;101504.19;4937874;29;20048;-78
2022/05/12 11:27:11;;;;;;;3.53;0.47;;;;;;;9.53;77.07;101497.13;4937540;29;20056;-81
2022/05/12 11:29:54;;;;;;;1.25;0.40;;;;;;;9.53;76.29;101498.03;4933037;28;20086;-80
2022/05/12 11:32:43;;;;;;;1.60;0.50;;;;;;;9.40;75.79;101504.31;4931690;29;20055;-77
2022/05/12 11:35:20;;;;;;;3.08;0.65;;;;;;;9.43;76.57;101514.78;4934286;29;20123;-80
2022/05/12 11:37:59;;;;;;;3.00;0.70;;;;;;;9.35;76.62;101492.91;4941745;29;20055;-78
2022/05/12 11:40:50;;;;;;;0.93;0.60;;;;;;;9.35;75.72;101495.47;4933050;29;20063;-78
2022/05/12 11:46:44;;;;;;;2.08;0.57;;;;;;;9.37;75.91;101485.22;4933977;29;20070;-79
2022/05/12 11:49:33;;;;;;;0.47;0.32;;;;;;;9.38;75.33;101487.84;4934182;29;20494;-78
2022/05/12 11:52:17;;;;;;;0.93;0.40;;;;;;;9.39;75.81;101489.66;4933660;29;20057;-80
2022/05/12 11:54:53;;;;;;;3.10;0.88;;;;;;;9.36;75.86;101480.84;4935821;29;20044;-78
2022/05/12 11:57:27;;;;;;;2.55;0.43;;;;;;;9.34;75.52;101485.94;4936249;29;20509;-80
2022/05/12 11:59:57;;;;;;;1.02;0.40;;;;;;;9.39;76.34;101471.56;4934843;29;20111;-80
2022/05/12 12:02:56;;;;;;;2.22;1.00;;;;;;;9.42;75.18;101465.66;4933679;29;20052;-80
2022/05/12 12:06:00;;;;;;;1.95;0.70;;;;;;;9.40;75.64;101473.31;4931968;29;20150;-81
2022/05/12 12:08:45;;;;;;;1.83;0.52;;;;;;;9.40;75.21;101462.97;4933388;29;20047;-78